sensor_id;sensor_type;location;lat;lon;timestamp;pressure;altitude;pressure_sealevel;temperature;humidity
61870;BME280;47810;42.264;23.826;2022-12-18T00:00:57;94465.09;;;8.26;88.67
61870;BME280;47810;42.264;23.826;2022-12-18T00:03:22;94469.66;;;8.41;88.57
61870;BME280;47810;42.264;23.826;2022-12-18T00:05:48;94472.03;;;8.27;88.59
61870;BME280;47810;42.264;23.826;2022-12-18T00:08:14;94474.94;;;8.21;89.01
61870;BME280;47810;42.264;23.826;2022-12-18T00:10:40;94483.78;;;8.20;89.35
61870;BME280;47810;42.264;23.826;2022-12-18T00:13:05;94487.16;;;8.42;89.24
61870;BME280;47810;42.264;23.826;2022-12-18T00:15:33;94487.97;;;8.61;88.44
61870;BME280;47810;42.264;23.826;2022-12-18T00:17:58;94491.84;;;8.54;88.79
61870;BME280;47810;42.264;23.826;2022-12-18T00:20:24;94483.06;;;8.54;88.56
61870;BME280;47810;42.264;23.826;2022-12-18T00:22:51;94481.59;;;8.48;88.44
61870;BME280;47810;42.264;23.826;2022-12-18T00:25:17;94489.63;;;8.45;88.73
61870;BME280;47810;42.264;23.826;2022-12-18T00:27:43;94490.53;;;8.44;88.89
61870;BME280;47810;42.264;23.826;2022-12-18T00:30:08;94488.84;;;8.43;88.83
61870;BME280;47810;42.264;23.826;2022-12-18T00:32:34;94487.16;;;8.42;88.75
61870;BME280;47810;42.264;23.826;2022-12-18T00:35:00;94493.25;;;8.61;88.52
61870;BME280;47810;42.264;23.826;2022-12-18T00:37:25;94488.56;;;8.49;88.33
61870;BME280;47810;42.264;23.826;2022-12-18T00:39:51;94494.91;;;8.45;88.61
61870;BME280;47810;42.264;23.826;2022-12-18T00:42:16;94498.81;;;8.55;88.25
61870;BME280;47810;42.264;23.826;2022-12-18T00:45:02;94497.53;;;8.64;87.88
61870;BME280;47810;42.264;23.826;2022-12-18T00:47:28;94491.97;;;8.51;88.17
61870;BME280;47810;42.264;23.826;2022-12-18T00:49:53;94504.56;;;8.45;88.46
61870;BME280;47810;42.264;23.826;2022-12-18T00:52:19;94506.19;;;8.47;88.28
61870;BME280;47810;42.264;23.826;2022-12-18T00:54:44;94505.91;;;8.53;87.86
61870;BME280;47810;42.264;23.826;2022-12-18T00:57:10;94502.38;;;8.54;87.96
61870;BME280;47810;42.264;23.826;2022-12-18T00:59:35;94509.75;;;8.46;88.38
61870;BME280;47810;42.264;23.826;2022-12-18T01:02:01;94504.47;;;8.65;88.07
61870;BME280;47810;42.264;23.826;2022-12-18T01:04:26;94499.88;;;8.51;87.71
61870;BME280;47810;42.264;23.826;2022-12-18T01:06:52;94510.84;;;8.42;87.82
61870;BME280;47810;42.264;23.826;2022-12-18T01:09:17;94514.00;;;8.30;87.92
61870;BME280;47810;42.264;23.826;2022-12-18T01:11:43;94509.44;;;8.33;88.00
61870;BME280;47810;42.264;23.826;2022-12-18T01:14:08;94518.19;;;8.34;87.94
61870;BME280;47810;42.264;23.826;2022-12-18T01:16:35;94518.53;;;8.26;88.07
61870;BME280;47810;42.264;23.826;2022-12-18T01:19:00;94519.72;;;8.39;87.79
61870;BME280;47810;42.264;23.826;2022-12-18T01:21:26;94520.31;;;8.26;87.95
61870;BME280;47810;42.264;23.826;2022-12-18T01:23:52;94525.38;;;8.30;87.87
61870;BME280;47810;42.264;23.826;2022-12-18T01:26:18;94530.06;;;8.24;88.19
61870;BME280;47810;42.264;23.826;2022-12-18T01:28:44;94537.38;;;8.36;88.11
61870;BME280;47810;42.264;23.826;2022-12-18T01:31:18;94534.66;;;8.39;87.70
61870;BME280;47810;42.264;23.826;2022-12-18T01:33:44;94532.13;;;8.36;87.51
61870;BME280;47810;42.264;23.826;2022-12-18T01:36:20;94533.06;;;8.35;87.61
61870;BME280;47810;42.264;23.826;2022-12-18T01:38:46;94541.09;;;8.32;87.80
61870;BME280;47810;42.264;23.826;2022-12-18T01:41:12;94541.59;;;8.40;87.52
61870;BME280;47810;42.264;23.826;2022-12-18T01:43:43;94535.59;;;8.38;87.50
61870;BME280;47810;42.264;23.826;2022-12-18T01:46:08;94540.44;;;8.27;87.31
61870;BME280;47810;42.264;23.826;2022-12-18T01:48:34;94530.91;;;8.24;87.44
61870;BME280;47810;42.264;23.826;2022-12-18T01:51:00;94539.00;;;8.20;87.46
61870;BME280;47810;42.264;23.826;2022-12-18T01:53:26;94544.75;;;8.28;86.90
61870;BME280;47810;42.264;23.826;2022-12-18T01:55:52;94543.06;;;8.27;86.98
61870;BME280;47810;42.264;23.826;2022-12-18T01:58:19;94545.63;;;8.09;87.07
61870;BME280;47810;42.264;23.826;2022-12-18T02:00:45;94541.78;;;8.16;87.12
61870;BME280;47810;42.264;23.826;2022-12-18T02:03:11;94546.50;;;8.08;86.68
61870;BME280;47810;42.264;23.826;2022-12-18T02:05:51;94559.88;;;8.04;86.25
61870;BME280;47810;42.264;23.826;2022-12-18T02:11:11;94563.09;;;8.10;86.40
61870;BME280;47810;42.264;23.826;2022-12-18T02:16:25;94562.56;;;8.02;86.73
61870;BME280;47810;42.264;23.826;2022-12-18T02:18:54;94559.31;;;7.97;86.56
61870;BME280;47810;42.264;23.826;2022-12-18T02:21:40;94556.53;;;8.00;86.81
61870;BME280;47810;42.264;23.826;2022-12-18T02:24:18;94559.81;;;8.05;86.37
61870;BME280;47810;42.264;23.826;2022-12-18T02:26:49;94554.63;;;8.04;86.19
61870;BME280;47810;42.264;23.826;2022-12-18T02:29:17;94555.88;;;7.95;86.36
61870;BME280;47810;42.264;23.826;2022-12-18T02:31:47;94555.97;;;7.93;86.16
61870;BME280;47810;42.264;23.826;2022-12-18T02:34:15;94566.19;;;7.79;85.63
61870;BME280;47810;42.264;23.826;2022-12-18T02:36:41;94565.88;;;7.66;86.29
61870;BME280;47810;42.264;23.826;2022-12-18T02:39:09;94564.91;;;7.69;86.42
61870;BME280;47810;42.264;23.826;2022-12-18T02:41:36;94565.03;;;7.66;86.51
61870;BME280;47810;42.264;23.826;2022-12-18T02:44:12;94568.88;;;7.57;86.14
61870;BME280;47810;42.264;23.826;2022-12-18T02:46:46;94568.75;;;7.40;86.18
61870;BME280;47810;42.264;23.826;2022-12-18T02:49:21;94584.38;;;7.43;86.17
61870;BME280;47810;42.264;23.826;2022-12-18T02:54:28;94586.59;;;7.32;86.21
61870;BME280;47810;42.264;23.826;2022-12-18T02:56:57;94576.84;;;7.13;86.48
61870;BME280;47810;42.264;23.826;2022-12-18T02:59:25;94588.56;;;7.27;86.90
61870;BME280;47810;42.264;23.826;2022-12-18T03:02:01;94590.03;;;7.34;87.16
61870;BME280;47810;42.264;23.826;2022-12-18T03:04:34;94586.66;;;7.30;86.64
61870;BME280;47810;42.264;23.826;2022-12-18T03:07:05;94597.22;;;7.29;86.63
61870;BME280;47810;42.264;23.826;2022-12-18T03:09:34;94596.00;;;7.37;86.50
61870;BME280;47810;42.264;23.826;2022-12-18T03:12:08;94597.91;;;7.34;86.18
61870;BME280;47810;42.264;23.826;2022-12-18T03:14:59;94597.91;;;7.34;86.28
61870;BME280;47810;42.264;23.826;2022-12-18T03:17:26;94601.97;;;7.41;85.55
61870;BME280;47810;42.264;23.826;2022-12-18T03:19:52;94603.97;;;7.36;85.78
61870;BME280;47810;42.264;23.826;2022-12-18T03:22:18;94607.34;;;7.38;85.94
61870;BME280;47810;42.264;23.826;2022-12-18T03:24:45;94603.09;;;7.35;85.84
61870;BME280;47810;42.264;23.826;2022-12-18T03:27:12;94604.44;;;7.23;85.40
61870;BME280;47810;42.264;23.826;2022-12-18T03:29:40;94605.91;;;7.31;85.68
61870;BME280;47810;42.264;23.826;2022-12-18T03:32:09;94608.13;;;7.19;84.91
61870;BME280;47810;42.264;23.826;2022-12-18T03:34:37;94610.66;;;6.99;84.62
61870;BME280;47810;42.264;23.826;2022-12-18T03:37:04;94618.00;;;6.91;84.51
61870;BME280;47810;42.264;23.826;2022-12-18T03:39:30;94622.78;;;7.03;85.10
61870;BME280;47810;42.264;23.826;2022-12-18T03:41:58;94625.56;;;6.98;85.31
61870;BME280;47810;42.264;23.826;2022-12-18T03:49:25;94640.94;;;6.86;84.68
61870;BME280;47810;42.264;23.826;2022-12-18T03:52:01;94642.91;;;6.81;84.48
61870;BME280;47810;42.264;23.826;2022-12-18T03:54:28;94649.28;;;6.50;84.97
61870;BME280;47810;42.264;23.826;2022-12-18T03:56:59;94648.81;;;6.39;85.15
61870;BME280;47810;42.264;23.826;2022-12-18T03:59:26;94654.19;;;6.36;85.23
61870;BME280;47810;42.264;23.826;2022-12-18T04:01:54;94656.44;;;6.21;86.33
61870;BME280;47810;42.264;23.826;2022-12-18T04:04:20;94662.72;;;6.17;86.26
61870;BME280;47810;42.264;23.826;2022-12-18T04:06:46;94664.19;;;6.24;86.22
61870;BME280;47810;42.264;23.826;2022-12-18T04:09:13;94664.72;;;6.09;86.25
61870;BME280;47810;42.264;23.826;2022-12-18T04:11:42;94672.88;;;6.26;86.49
61870;BME280;47810;42.264;23.826;2022-12-18T04:14:10;94667.34;;;6.09;86.64
61870;BME280;47810;42.264;23.826;2022-12-18T04:16:36;94675.97;;;6.13;86.96
61870;BME280;47810;42.264;23.826;2022-12-18T04:19:02;94680.25;;;6.15;86.91
61870;BME280;47810;42.264;23.826;2022-12-18T04:21:27;94678.22;;;6.23;86.86
61870;BME280;47810;42.264;23.826;2022-12-18T04:23:52;94686.03;;;6.25;86.47
61870;BME280;47810;42.264;23.826;2022-12-18T04:26:18;94693.84;;;6.26;85.89
61870;BME280;47810;42.264;23.826;2022-12-18T04:28:44;94690.00;;;6.37;86.75
61870;BME280;47810;42.264;23.826;2022-12-18T04:31:10;94684.84;;;6.34;86.10
61870;BME280;47810;42.264;23.826;2022-12-18T04:33:36;94691.66;;;6.63;84.13
61870;BME280;47810;42.264;23.826;2022-12-18T04:36:01;94687.28;;;6.63;85.46
61870;BME280;47810;42.264;23.826;2022-12-18T04:38:27;94692.75;;;6.57;84.74
61870;BME280;47810;42.264;23.826;2022-12-18T04:40:52;94691.34;;;6.23;84.57
61870;BME280;47810;42.264;23.826;2022-12-18T04:43:18;94691.34;;;6.23;85.84
61870;BME280;47810;42.264;23.826;2022-12-18T04:45:43;94693.91;;;6.25;85.69
61870;BME280;47810;42.264;23.826;2022-12-18T04:48:09;94700.38;;;6.40;86.09
61870;BME280;47810;42.264;23.826;2022-12-18T04:50:35;94703.88;;;6.39;85.96
61870;BME280;47810;42.264;23.826;2022-12-18T04:53:00;94711.09;;;6.34;85.79
61870;BME280;47810;42.264;23.826;2022-12-18T04:55:26;94708.28;;;6.38;85.70
61870;BME280;47810;42.264;23.826;2022-12-18T04:57:52;94720.97;;;6.25;85.44
61870;BME280;47810;42.264;23.826;2022-12-18T05:00:17;94718.19;;;6.30;85.61
61870;BME280;47810;42.264;23.826;2022-12-18T05:02:43;94724.88;;;6.39;85.35
61870;BME280;47810;42.264;23.826;2022-12-18T05:05:08;94726.59;;;6.40;85.26
61870;BME280;47810;42.264;23.826;2022-12-18T05:07:34;94729.25;;;6.38;85.35
61870;BME280;47810;42.264;23.826;2022-12-18T05:09:59;94731.63;;;6.46;84.29
61870;BME280;47810;42.264;23.826;2022-12-18T05:12:25;94736.56;;;6.30;84.37
61870;BME280;47810;42.264;23.826;2022-12-18T05:14:50;94739.97;;;6.32;85.62
61870;BME280;47810;42.264;23.826;2022-12-18T05:17:16;94746.63;;;6.17;84.91
61870;BME280;47810;42.264;23.826;2022-12-18T05:19:41;94749.91;;;6.22;85.10
61870;BME280;47810;42.264;23.826;2022-12-18T05:22:07;94755.81;;;6.29;85.35
61870;BME280;47810;42.264;23.826;2022-12-18T05:24:33;94754.22;;;6.25;85.03
61870;BME280;47810;42.264;23.826;2022-12-18T05:26:59;94752.50;;;6.24;85.13
61870;BME280;47810;42.264;23.826;2022-12-18T05:29:24;94749.06;;;6.22;84.82
61870;BME280;47810;42.264;23.826;2022-12-18T05:31:50;94758.50;;;6.27;84.75
61870;BME280;47810;42.264;23.826;2022-12-18T05:37:00;94770.47;;;6.35;84.42
61870;BME280;47810;42.264;23.826;2022-12-18T05:39:26;94766.97;;;6.36;84.81
61870;BME280;47810;42.264;23.826;2022-12-18T05:41:51;94772.09;;;6.39;85.09
61870;BME280;47810;42.264;23.826;2022-12-18T05:44:17;94770.16;;;6.44;84.77
61870;BME280;47810;42.264;23.826;2022-12-18T05:46:42;94778.22;;;6.39;84.99
61870;BME280;47810;42.264;23.826;2022-12-18T05:49:08;94779.38;;;6.30;84.60
61870;BME280;47810;42.264;23.826;2022-12-18T05:51:34;94774.94;;;6.33;83.84
61870;BME280;47810;42.264;23.826;2022-12-18T05:53:59;94785.69;;;6.25;84.45
61870;BME280;47810;42.264;23.826;2022-12-18T05:56:25;94783.06;;;6.25;83.32
61870;BME280;47810;42.264;23.826;2022-12-18T05:58:51;94787.81;;;6.14;83.70
61870;BME280;47810;42.264;23.826;2022-12-18T06:01:18;94777.53;;;6.07;83.52
61870;BME280;47810;42.264;23.826;2022-12-18T06:03:51;94792.50;;;6.04;84.00
61870;BME280;47810;42.264;23.826;2022-12-18T06:06:18;94781.28;;;6.25;81.65
61870;BME280;47810;42.264;23.826;2022-12-18T06:08:44;94786.31;;;6.32;81.37
61870;BME280;47810;42.264;23.826;2022-12-18T06:11:10;94797.31;;;6.16;82.52
61870;BME280;47810;42.264;23.826;2022-12-18T06:13:36;94801.06;;;6.09;83.25
61870;BME280;47810;42.264;23.826;2022-12-18T06:16:02;94808.22;;;6.04;83.60
61870;BME280;47810;42.264;23.826;2022-12-18T06:18:28;94808.44;;;5.98;83.22
61870;BME280;47810;42.264;23.826;2022-12-18T06:20:56;94824.50;;;5.86;82.96
61870;BME280;47810;42.264;23.826;2022-12-18T06:23:24;94824.41;;;5.89;83.72
61870;BME280;47810;42.264;23.826;2022-12-18T06:25:50;94827.84;;;5.91;83.22
61870;BME280;47810;42.264;23.826;2022-12-18T06:28:16;94829.41;;;5.98;82.43
61870;BME280;47810;42.264;23.826;2022-12-18T06:30:45;94843.69;;;5.88;83.52
61870;BME280;47810;42.264;23.826;2022-12-18T06:33:10;94850.72;;;5.86;83.56
61870;BME280;47810;42.264;23.826;2022-12-18T06:35:36;94854.25;;;5.84;83.62
61870;BME280;47810;42.264;23.826;2022-12-18T06:38:02;94863.38;;;5.71;82.94
61870;BME280;47810;42.264;23.826;2022-12-18T06:40:28;94869.53;;;5.70;82.08
61870;BME280;47810;42.264;23.826;2022-12-18T06:42:54;94874.97;;;5.92;79.82
61870;BME280;47810;42.264;23.826;2022-12-18T06:45:19;94871.88;;;5.79;79.83
61870;BME280;47810;42.264;23.826;2022-12-18T06:47:45;94873.59;;;5.51;80.80
61870;BME280;47810;42.264;23.826;2022-12-18T06:50:18;94877.47;;;5.37;81.78
61870;BME280;47810;42.264;23.826;2022-12-18T06:52:44;94881.25;;;5.27;83.23
61870;BME280;47810;42.264;23.826;2022-12-18T06:55:10;94880.00;;;5.41;84.00
61870;BME280;47810;42.264;23.826;2022-12-18T06:57:35;94879.81;;;5.17;83.08
61870;BME280;47810;42.264;23.826;2022-12-18T07:00:02;94884.22;;;5.46;81.11
61870;BME280;47810;42.264;23.826;2022-12-18T07:02:28;94883.28;;;5.18;82.73
61870;BME280;47810;42.264;23.826;2022-12-18T07:04:53;94887.06;;;5.07;83.02
61870;BME280;47810;42.264;23.826;2022-12-18T07:07:19;94896.16;;;5.25;84.50
61870;BME280;47810;42.264;23.826;2022-12-18T07:09:44;94891.50;;;5.35;84.37
61870;BME280;47810;42.264;23.826;2022-12-18T07:12:10;94899.34;;;5.36;84.10
61870;BME280;47810;42.264;23.826;2022-12-18T07:14:35;94904.19;;;5.49;83.74
61870;BME280;47810;42.264;23.826;2022-12-18T07:17:01;94902.31;;;5.54;83.82
61870;BME280;47810;42.264;23.826;2022-12-18T07:19:26;94903.31;;;5.79;80.72
61870;BME280;47810;42.264;23.826;2022-12-18T07:21:52;94906.63;;;5.55;82.44
61870;BME280;47810;42.264;23.826;2022-12-18T07:24:17;94907.63;;;5.20;82.09
61870;BME280;47810;42.264;23.826;2022-12-18T07:26:45;94907.31;;;5.32;83.18
61870;BME280;47810;42.264;23.826;2022-12-18T07:29:11;94909.44;;;5.49;83.19
61870;BME280;47810;42.264;23.826;2022-12-18T07:31:36;94909.00;;;5.64;83.12
61870;BME280;47810;42.264;23.826;2022-12-18T07:34:02;94909.75;;;5.68;83.22
61870;BME280;47810;42.264;23.826;2022-12-18T07:36:28;94907.13;;;5.69;83.32
61870;BME280;47810;42.264;23.826;2022-12-18T07:38:53;94906.88;;;5.77;82.96
61870;BME280;47810;42.264;23.826;2022-12-18T07:41:19;94912.19;;;5.75;82.43
61870;BME280;47810;42.264;23.826;2022-12-18T07:43:45;94910.91;;;5.59;82.00
61870;BME280;47810;42.264;23.826;2022-12-18T07:46:11;94913.34;;;5.65;82.57
61870;BME280;47810;42.264;23.826;2022-12-18T07:48:39;94916.25;;;5.56;82.69
61870;BME280;47810;42.264;23.826;2022-12-18T07:51:06;94919.47;;;5.64;82.65
61870;BME280;47810;42.264;23.826;2022-12-18T07:53:33;94915.69;;;5.74;82.37
61870;BME280;47810;42.264;23.826;2022-12-18T07:55:59;94919.97;;;5.77;82.74
61870;BME280;47810;42.264;23.826;2022-12-18T07:58:25;94921.47;;;5.86;82.53
61870;BME280;47810;42.264;23.826;2022-12-18T08:00:51;94924.84;;;5.89;82.49
61870;BME280;47810;42.264;23.826;2022-12-18T08:03:17;94926.41;;;5.96;81.70
61870;BME280;47810;42.264;23.826;2022-12-18T08:05:43;94929.78;;;6.00;81.64
61870;BME280;47810;42.264;23.826;2022-12-18T08:08:08;94928.09;;;5.99;81.25
61870;BME280;47810;42.264;23.826;2022-12-18T08:10:34;94928.91;;;6.01;81.82
61870;BME280;47810;42.264;23.826;2022-12-18T08:13:32;94931.44;;;6.04;81.61
61870;BME280;47810;42.264;23.826;2022-12-18T08:17:01;94931.63;;;5.98;81.51
61870;BME280;47810;42.264;23.826;2022-12-18T08:20:05;94930.72;;;5.99;80.22
61870;BME280;47810;42.264;23.826;2022-12-18T08:23:35;94928.41;;;6.16;81.19
61870;BME280;47810;42.264;23.826;2022-12-18T08:27:04;94933.38;;;6.25;81.18
61870;BME280;47810;42.264;23.826;2022-12-18T08:30:03;94941.41;;;6.49;80.70
61870;BME280;47810;42.264;23.826;2022-12-18T08:42:45;94933.28;;;6.57;78.67
61870;BME280;47810;42.264;23.826;2022-12-18T08:45:29;94944.72;;;6.54;79.61
61870;BME280;47810;42.264;23.826;2022-12-18T08:47:55;94937.38;;;6.65;79.45
61870;BME280;47810;42.264;23.826;2022-12-18T08:50:57;94952.63;;;6.81;78.60
61870;BME280;47810;42.264;23.826;2022-12-18T08:53:56;94951.69;;;6.55;79.07
61870;BME280;47810;42.264;23.826;2022-12-18T08:56:22;94951.44;;;6.63;79.30
61870;BME280;47810;42.264;23.826;2022-12-18T08:58:47;94947.63;;;6.45;78.76
61870;BME280;47810;42.264;23.826;2022-12-18T09:01:16;94951.69;;;6.27;78.37
61870;BME280;47810;42.264;23.826;2022-12-18T09:03:41;94948.25;;;6.53;79.61
61870;BME280;47810;42.264;23.826;2022-12-18T09:06:07;94939.53;;;6.52;78.57
61870;BME280;47810;42.264;23.826;2022-12-18T09:08:32;94945.94;;;6.70;78.52
61870;BME280;47810;42.264;23.826;2022-12-18T09:10:58;94950.00;;;6.81;78.39
61870;BME280;47810;42.264;23.826;2022-12-18T09:13:24;94951.78;;;6.79;78.60
61870;BME280;47810;42.264;23.826;2022-12-18T09:15:50;94954.13;;;6.88;78.77
61870;BME280;47810;42.264;23.826;2022-12-18T09:18:17;94953.69;;;6.73;78.00
61870;BME280;47810;42.264;23.826;2022-12-18T09:20:43;94950.13;;;6.49;77.99
61870;BME280;47810;42.264;23.826;2022-12-18T09:23:09;94958.53;;;6.33;78.65
61870;BME280;47810;42.264;23.826;2022-12-18T09:25:35;94953.78;;;6.44;78.93
61870;BME280;47810;42.264;23.826;2022-12-18T09:28:09;94952.97;;;6.42;79.03
61870;BME280;47810;42.264;23.826;2022-12-18T09:30:39;94956.66;;;6.36;79.16
61870;BME280;47810;42.264;23.826;2022-12-18T09:33:05;94952.47;;;6.30;79.46
61870;BME280;47810;42.264;23.826;2022-12-18T09:35:31;94955.50;;;6.45;79.28
61870;BME280;47810;42.264;23.826;2022-12-18T09:37:56;94952.84;;;6.46;79.00
61870;BME280;47810;42.264;23.826;2022-12-18T09:40:23;94951.53;;;6.32;79.08
61870;BME280;47810;42.264;23.826;2022-12-18T09:43:00;94950.84;;;5.97;79.37
61870;BME280;47810;42.264;23.826;2022-12-18T09:45:38;94953.13;;;6.09;79.50
61870;BME280;47810;42.264;23.826;2022-12-18T09:48:05;94958.34;;;6.09;79.63
61870;BME280;47810;42.264;23.826;2022-12-18T09:50:33;94953.56;;;6.23;79.64
61870;BME280;47810;42.264;23.826;2022-12-18T09:53:05;94950.75;;;6.01;79.69
61870;BME280;47810;42.264;23.826;2022-12-18T09:55:33;94950.22;;;6.18;79.81
61870;BME280;47810;42.264;23.826;2022-12-18T09:58:24;94948.84;;;6.35;79.43
61870;BME280;47810;42.264;23.826;2022-12-18T10:00:45;94942.97;;;6.26;79.34
61870;BME280;47810;42.264;23.826;2022-12-18T10:03:30;94949.06;;;5.99;79.64
61870;BME280;47810;42.264;23.826;2022-12-18T10:08:46;94948.81;;;6.06;79.62
61870;BME280;47810;42.264;23.826;2022-12-18T10:13:47;94956.47;;;6.14;79.48
61870;BME280;47810;42.264;23.826;2022-12-18T10:21:10;94946.84;;;6.15;79.66
61870;BME280;47810;42.264;23.826;2022-12-18T10:23:45;94950.13;;;5.92;78.88
61870;BME280;47810;42.264;23.826;2022-12-18T10:26:16;94955.31;;;5.95;79.30
61870;BME280;47810;42.264;23.826;2022-12-18T10:28:42;94952.16;;;5.51;79.04
61870;BME280;47810;42.264;23.826;2022-12-18T10:31:19;94961.41;;;5.64;79.81
61870;BME280;47810;42.264;23.826;2022-12-18T10:33:44;94953.88;;;5.83;80.01
61870;BME280;47810;42.264;23.826;2022-12-18T10:36:10;94950.13;;;5.92;80.17
61870;BME280;47810;42.264;23.826;2022-12-18T10:38:36;94958.72;;;5.97;80.07
61870;BME280;47810;42.264;23.826;2022-12-18T10:41:06;94954.03;;;6.08;79.23
61870;BME280;47810;42.264;23.826;2022-12-18T10:43:39;94958.53;;;6.03;78.55
61870;BME280;47810;42.264;23.826;2022-12-18T10:48:47;94962.94;;;6.02;79.12
61870;BME280;47810;42.264;23.826;2022-12-18T10:51:27;94959.41;;;6.03;79.52
61870;BME280;47810;42.264;23.826;2022-12-18T10:53:57;94954.50;;;5.91;78.92
61870;BME280;47810;42.264;23.826;2022-12-18T10:56:26;94950.69;;;6.03;78.73
61870;BME280;47810;42.264;23.826;2022-12-18T10:58:59;94948.88;;;5.74;78.82
61870;BME280;47810;42.264;23.826;2022-12-18T11:01:25;94944.88;;;5.92;79.68
61870;BME280;47810;42.264;23.826;2022-12-18T11:06:17;94947.59;;;5.89;79.95
61870;BME280;47810;42.264;23.826;2022-12-18T11:08:44;94951.69;;;5.68;78.88
61870;BME280;47810;42.264;23.826;2022-12-18T11:11:19;94944.88;;;5.62;79.84
61870;BME280;47810;42.264;23.826;2022-12-18T11:14:06;94934.84;;;5.76;80.36
61870;BME280;47810;42.264;23.826;2022-12-18T11:16:33;94944.81;;;5.95;80.12
61870;BME280;47810;42.264;23.826;2022-12-18T11:21:56;94939.03;;;6.13;79.86
61870;BME280;47810;42.264;23.826;2022-12-18T11:26:53;94941.00;;;6.05;79.03
61870;BME280;47810;42.264;23.826;2022-12-18T11:29:23;94942.53;;;5.82;78.76
61870;BME280;47810;42.264;23.826;2022-12-18T11:31:49;94937.56;;;6.03;77.49
61870;BME280;47810;42.264;23.826;2022-12-18T11:36:46;94936.81;;;6.27;77.24
61870;BME280;47810;42.264;23.826;2022-12-18T11:41:43;94924.47;;;6.58;75.34
61870;BME280;47810;42.264;23.826;2022-12-18T11:44:52;94929.06;;;6.51;75.60
61870;BME280;47810;42.264;23.826;2022-12-18T11:47:52;94926.75;;;6.42;76.98
61870;BME280;47810;42.264;23.826;2022-12-18T11:50:19;94926.31;;;6.56;76.93
61870;BME280;47810;42.264;23.826;2022-12-18T11:52:45;94929.06;;;6.51;77.41
61870;BME280;47810;42.264;23.826;2022-12-18T11:55:15;94927.06;;;6.59;77.63
61870;BME280;47810;42.264;23.826;2022-12-18T12:00:15;94927.56;;;6.70;77.08
61870;BME280;47810;42.264;23.826;2022-12-18T12:18:34;94945.19;;;6.39;76.75
61870;BME280;47810;42.264;23.826;2022-12-18T12:26:04;94947.63;;;5.87;77.75
61870;BME280;47810;42.264;23.826;2022-12-18T12:39:11;94946.78;;;6.16;78.04
61870;BME280;47810;42.264;23.826;2022-12-18T12:41:39;94961.63;;;6.17;77.90
61870;BME280;47810;42.264;23.826;2022-12-18T12:44:26;94957.06;;;6.22;77.52
61870;BME280;47810;42.264;23.826;2022-12-18T12:46:55;94966.78;;;6.20;77.08
61870;BME280;47810;42.264;23.826;2022-12-18T12:49:23;94966.19;;;5.79;77.09
61870;BME280;47810;42.264;23.826;2022-12-18T12:52:03;94974.81;;;5.84;77.18
61870;BME280;47810;42.264;23.826;2022-12-18T12:54:31;94970.88;;;5.99;76.67
61870;BME280;47810;42.264;23.826;2022-12-18T12:56:59;94976.50;;;5.86;77.17
61870;BME280;47810;42.264;23.826;2022-12-18T13:02:18;94981.53;;;5.95;77.62
61870;BME280;47810;42.264;23.826;2022-12-18T13:05:07;94988.44;;;5.97;77.60
61870;BME280;47810;42.264;23.826;2022-12-18T13:07:41;95000.13;;;5.84;78.55
61870;BME280;47810;42.264;23.826;2022-12-18T13:12:37;94992.31;;;5.82;79.39
61870;BME280;47810;42.264;23.826;2022-12-18T13:15:23;95001.94;;;5.82;79.19
61870;BME280;47810;42.264;23.826;2022-12-18T13:18:02;95009.66;;;5.87;78.48
61870;BME280;47810;42.264;23.826;2022-12-18T13:20:38;95003.13;;;5.70;79.42
61870;BME280;47810;42.264;23.826;2022-12-18T13:23:27;95006.41;;;5.78;78.03
61870;BME280;47810;42.264;23.826;2022-12-18T13:25:55;95010.22;;;5.67;77.96
61870;BME280;47810;42.264;23.826;2022-12-18T13:28:21;95018.50;;;5.51;79.01
61870;BME280;47810;42.264;23.826;2022-12-18T13:30:54;95020.16;;;5.55;78.99
61870;BME280;47810;42.264;23.826;2022-12-18T13:38:23;95029.06;;;5.48;78.19
61870;BME280;47810;42.264;23.826;2022-12-18T13:40:58;95029.16;;;5.45;78.51
61870;BME280;47810;42.264;23.826;2022-12-18T13:43:31;95028.22;;;5.48;78.08
61870;BME280;47810;42.264;23.826;2022-12-18T13:45:59;95036.75;;;5.56;77.95
61870;BME280;47810;42.264;23.826;2022-12-18T13:48:29;95033.38;;;5.51;78.15
61870;BME280;47810;42.264;23.826;2022-12-18T13:51:04;95054.63;;;5.38;78.57
61870;BME280;47810;42.264;23.826;2022-12-18T13:53:34;95048.94;;;5.23;78.96
61870;BME280;47810;42.264;23.826;2022-12-18T13:56:02;95050.31;;;5.37;78.63
61870;BME280;47810;42.264;23.826;2022-12-18T13:58:27;95054.06;;;5.27;78.78
61870;BME280;47810;42.264;23.826;2022-12-18T14:00:53;95063.22;;;5.11;78.94
61870;BME280;47810;42.264;23.826;2022-12-18T14:03:23;95063.78;;;5.22;79.25
61870;BME280;47810;42.264;23.826;2022-12-18T14:06:12;95070.41;;;5.37;79.09
61870;BME280;47810;42.264;23.826;2022-12-18T14:08:40;95072.50;;;5.23;79.21
61870;BME280;47810;42.264;23.826;2022-12-18T14:11:07;95079.03;;;5.41;79.20
61870;BME280;47810;42.264;23.826;2022-12-18T14:13:34;95079.03;;;5.41;79.04
61870;BME280;47810;42.264;23.826;2022-12-18T14:16:01;95086.00;;;5.42;78.97
61870;BME280;47810;42.264;23.826;2022-12-18T14:21:03;95077.69;;;5.58;78.88
61870;BME280;47810;42.264;23.826;2022-12-18T14:23:30;95076.66;;;5.64;78.88
61870;BME280;47810;42.264;23.826;2022-12-18T14:25:56;95080.81;;;5.73;78.49
61870;BME280;47810;42.264;23.826;2022-12-18T14:28:22;95077.94;;;5.49;79.09
61870;BME280;47810;42.264;23.826;2022-12-18T14:30:47;95077.19;;;5.46;79.52
61870;BME280;47810;42.264;23.826;2022-12-18T14:33:17;95085.50;;;5.60;78.86
61870;BME280;47810;42.264;23.826;2022-12-18T14:35:54;95087.38;;;5.55;79.29
61870;BME280;47810;42.264;23.826;2022-12-18T14:43:23;95092.38;;;5.64;79.09
61870;BME280;47810;42.264;23.826;2022-12-18T14:45:49;95098.63;;;5.60;78.98
61870;BME280;47810;42.264;23.826;2022-12-18T14:48:24;95105.16;;;5.44;79.30
61870;BME280;47810;42.264;23.826;2022-12-18T14:50:57;95110.09;;;5.56;79.14
61870;BME280;47810;42.264;23.826;2022-12-18T14:53:30;95118.81;;;5.55;79.09
61870;BME280;47810;42.264;23.826;2022-12-18T14:55:57;95121.59;;;5.49;78.94